sensor_id;sensor_type;location;lat;lon;timestamp;pressure;altitude;pressure_sealevel;temperature;humidity
53689;BME280;39583;54.682;30.662;2022-08-16T06:14:01;99518.84;;;24.23;67.15
53689;BME280;39583;54.682;30.662;2022-08-16T06:16:36;99521.88;;;24.22;66.50
53689;BME280;39583;54.682;30.662;2022-08-16T06:19:03;99521.69;;;24.32;66.68
53689;BME280;39583;54.682;30.662;2022-08-16T06:21:30;99524.34;;;24.37;66.10
53689;BME280;39583;54.682;30.662;2022-08-16T06:24:01;99531.97;;;24.40;66.06
53689;BME280;39583;54.682;30.662;2022-08-16T06:26:31;99543.31;;;24.38;66.49
53689;BME280;39583;54.682;30.662;2022-08-16T06:28:57;99541.66;;;24.24;66.63
53689;BME280;39583;54.682;30.662;2022-08-16T06:31:36;99553.06;;;24.17;67.66
53689;BME280;39583;54.682;30.662;2022-08-16T06:34:04;99546.38;;;24.09;67.59
53689;BME280;39583;54.682;30.662;2022-08-16T06:36:33;99550.22;;;24.08;68.14
53689;BME280;39583;54.682;30.662;2022-08-16T06:39:17;99545.94;;;24.16;67.71
53689;BME280;39583;54.682;30.662;2022-08-16T06:41:50;99548.09;;;24.33;67.45
53689;BME280;39583;54.682;30.662;2022-08-16T06:44:39;99551.63;;;24.47;66.79
53689;BME280;39583;54.682;30.662;2022-08-16T06:47:15;99539.16;;;24.63;66.58
53689;BME280;39583;54.682;30.662;2022-08-16T06:49:42;99542.63;;;24.91;65.56
53689;BME280;39583;54.682;30.662;2022-08-16T06:52:08;99541.63;;;25.10;65.30
53689;BME280;39583;54.682;30.662;2022-08-16T06:54:36;99526.66;;;25.24;64.58
53689;BME280;39583;54.682;30.662;2022-08-16T06:57:03;99526.19;;;25.53;64.09
53689;BME280;39583;54.682;30.662;2022-08-16T06:59:31;99527.94;;;25.89;63.74
53689;BME280;39583;54.682;30.662;2022-08-16T07:01:58;99525.59;;;26.22;62.79
53689;BME280;39583;54.682;30.662;2022-08-16T07:04:27;99528.41;;;26.39;62.01
53689;BME280;39583;54.682;30.662;2022-08-16T07:06:53;99526.13;;;26.41;61.46
53689;BME280;39583;54.682;30.662;2022-08-16T07:09:20;99515.75;;;26.38;61.09
53689;BME280;39583;54.682;30.662;2022-08-16T07:11:47;99524.16;;;26.33;61.43
53689;BME280;39583;54.682;30.662;2022-08-16T07:14:16;99530.81;;;26.24;61.11
53689;BME280;39583;54.682;30.662;2022-08-16T07:16:49;99520.06;;;26.13;60.33
53689;BME280;39583;54.682;30.662;2022-08-16T07:19:16;99516.41;;;25.87;60.43
53689;BME280;39583;54.682;30.662;2022-08-16T07:21:42;99523.72;;;25.52;60.70
53689;BME280;39583;54.682;30.662;2022-08-16T07:24:09;99524.22;;;25.23;60.79
53689;BME280;39583;54.682;30.662;2022-08-16T07:26:39;99550.03;;;25.05;61.54
53689;BME280;39583;54.682;30.662;2022-08-16T07:29:06;99546.50;;;24.90;61.65
53689;BME280;39583;54.682;30.662;2022-08-16T07:31:32;99560.28;;;24.90;62.00
53689;BME280;39583;54.682;30.662;2022-08-16T07:33:59;99568.38;;;25.09;62.16
53689;BME280;39583;54.682;30.662;2022-08-16T07:36:28;99561.34;;;25.25;61.71
53689;BME280;39583;54.682;30.662;2022-08-16T07:38:54;99563.91;;;25.44;61.22
53689;BME280;39583;54.682;30.662;2022-08-16T07:41:21;99562.03;;;25.62;61.39
53689;BME280;39583;54.682;30.662;2022-08-16T07:43:54;99568.19;;;25.81;60.92
53689;BME280;39583;54.682;30.662;2022-08-16T07:46:22;99566.97;;;26.05;60.42
53689;BME280;39583;54.682;30.662;2022-08-16T07:48:49;99575.44;;;26.26;59.89
53689;BME280;39583;54.682;30.662;2022-08-16T07:51:15;99566.19;;;26.22;59.37
53689;BME280;39583;54.682;30.662;2022-08-16T07:53:42;99569.28;;;26.20;58.78
53689;BME280;39583;54.682;30.662;2022-08-16T07:56:12;99572.22;;;26.32;59.10
53689;BME280;39583;54.682;30.662;2022-08-16T07:58:39;99567.88;;;26.40;58.67
53689;BME280;39583;54.682;30.662;2022-08-16T08:01:12;99569.88;;;26.57;57.93
53689;BME280;39583;54.682;30.662;2022-08-16T08:03:44;99566.94;;;26.62;57.66
53689;BME280;39583;54.682;30.662;2022-08-16T08:06:12;99569.69;;;26.62;57.70
53689;BME280;39583;54.682;30.662;2022-08-16T08:08:40;99564.34;;;26.65;57.70
53689;BME280;39583;54.682;30.662;2022-08-16T08:11:08;99563.50;;;26.56;57.53
53689;BME280;39583;54.682;30.662;2022-08-16T08:13:35;99574.06;;;26.37;57.42
53689;BME280;39583;54.682;30.662;2022-08-16T08:16:02;99574.47;;;26.22;57.89
53689;BME280;39583;54.682;30.662;2022-08-16T08:18:28;99572.00;;;26.11;58.27
53689;BME280;39583;54.682;30.662;2022-08-16T08:20:56;99569.72;;;26.13;57.64
53689;BME280;39583;54.682;30.662;2022-08-16T08:23:22;99562.94;;;26.20;57.90
53689;BME280;39583;54.682;30.662;2022-08-16T08:25:49;99569.16;;;26.34;57.30
53689;BME280;39583;54.682;30.662;2022-08-16T08:28:16;99563.03;;;26.63;57.20
53689;BME280;39583;54.682;30.662;2022-08-16T08:30:43;99562.41;;;26.83;56.82
53689;BME280;39583;54.682;30.662;2022-08-16T08:33:10;99573.78;;;26.99;56.77
53689;BME280;39583;54.682;30.662;2022-08-16T08:35:40;99564.03;;;26.84;56.32
53689;BME280;39583;54.682;30.662;2022-08-16T08:38:09;99563.69;;;26.86;56.03
53689;BME280;39583;54.682;30.662;2022-08-16T08:40:41;99564.03;;;27.01;56.23
53689;BME280;39583;54.682;30.662;2022-08-16T08:43:07;99557.72;;;27.10;55.31
53689;BME280;39583;54.682;30.662;2022-08-16T08:45:40;99556.03;;;27.26;55.68
53689;BME280;39583;54.682;30.662;2022-08-16T08:48:07;99556.75;;;27.70;55.50
53689;BME280;39583;54.682;30.662;2022-08-16T08:50:35;99558.81;;;27.90;54.90
53689;BME280;39583;54.682;30.662;2022-08-16T08:53:02;99556.16;;;27.94;54.78
53689;BME280;39583;54.682;30.662;2022-08-16T08:55:29;99558.22;;;27.76;54.51
53689;BME280;39583;54.682;30.662;2022-08-16T08:57:57;99567.00;;;27.69;55.13
53689;BME280;39583;54.682;30.662;2022-08-16T09:00:39;99565.94;;;27.91;55.04
53689;BME280;39583;54.682;30.662;2022-08-16T09:03:05;99571.22;;;28.13;54.16
53689;BME280;39583;54.682;30.662;2022-08-16T09:05:35;99561.34;;;28.33;53.38
53689;BME280;39583;54.682;30.662;2022-08-16T09:08:02;99560.41;;;28.20;53.11
53689;BME280;39583;54.682;30.662;2022-08-16T09:10:39;99574.69;;;28.02;53.48
53689;BME280;39583;54.682;30.662;2022-08-16T09:13:07;99565.63;;;27.92;53.18
53689;BME280;39583;54.682;30.662;2022-08-16T09:15:39;99574.41;;;27.95;53.56
53689;BME280;39583;54.682;30.662;2022-08-16T09:18:06;99576.66;;;28.01;53.37
53689;BME280;39583;54.682;30.662;2022-08-16T09:20:32;99570.00;;;27.94;53.03
53689;BME280;39583;54.682;30.662;2022-08-16T09:22:59;99568.94;;;27.77;53.34
53689;BME280;39583;54.682;30.662;2022-08-16T09:25:42;99576.59;;;27.72;54.56
53689;BME280;39583;54.682;30.662;2022-08-16T09:28:14;99574.94;;;27.79;54.04
53689;BME280;39583;54.682;30.662;2022-08-16T09:30:45;99572.63;;;27.90;54.12
53689;BME280;39583;54.682;30.662;2022-08-16T09:33:13;99568.59;;;27.87;54.00
53689;BME280;39583;54.682;30.662;2022-08-16T09:35:44;99580.81;;;27.78;53.54
53689;BME280;39583;54.682;30.662;2022-08-16T09:38:11;99578.59;;;27.54;54.26
53689;BME280;39583;54.682;30.662;2022-08-16T09:40:43;99559.25;;;27.45;54.59
53689;BME280;39583;54.682;30.662;2022-08-16T09:43:12;99577.59;;;27.58;55.05
53689;BME280;39583;54.682;30.662;2022-08-16T09:45:38;99589.66;;;27.54;54.79
53689;BME280;39583;54.682;30.662;2022-08-16T09:48:10;99584.31;;;27.40;55.13
53689;BME280;39583;54.682;30.662;2022-08-16T09:50:37;99570.00;;;27.38;55.53
53689;BME280;39583;54.682;30.662;2022-08-16T09:53:10;99579.88;;;27.56;55.37
53689;BME280;39583;54.682;30.662;2022-08-16T09:55:39;99587.78;;;27.84;55.38
53689;BME280;39583;54.682;30.662;2022-08-16T09:58:05;99584.78;;;27.98;54.67
53689;BME280;39583;54.682;30.662;2022-08-16T10:00:32;99590.44;;;28.10;54.65
53689;BME280;39583;54.682;30.662;2022-08-16T10:02:58;99577.38;;;28.28;53.94
53689;BME280;39583;54.682;30.662;2022-08-16T10:05:24;99576.63;;;28.39;54.10
53689;BME280;39583;54.682;30.662;2022-08-16T10:07:51;99573.13;;;28.51;53.29
53689;BME280;39583;54.682;30.662;2022-08-16T10:10:22;99568.53;;;28.55;52.03
53689;BME280;39583;54.682;30.662;2022-08-16T10:12:48;99576.13;;;28.67;52.25
53689;BME280;39583;54.682;30.662;2022-08-16T10:15:35;99580.59;;;29.01;52.05
53689;BME280;39583;54.682;30.662;2022-08-16T10:18:03;99573.28;;;29.29;51.25
53689;BME280;39583;54.682;30.662;2022-08-16T10:20:35;99574.63;;;29.44;50.49
53689;BME280;39583;54.682;30.662;2022-08-16T10:23:07;99581.81;;;29.45;50.50
53689;BME280;39583;54.682;30.662;2022-08-16T10:25:35;99594.06;;;29.44;51.22
53689;BME280;39583;54.682;30.662;2022-08-16T10:28:02;99589.22;;;29.53;51.11
53689;BME280;39583;54.682;30.662;2022-08-16T10:30:31;99587.50;;;29.49;50.57
53689;BME280;39583;54.682;30.662;2022-08-16T10:32:57;99589.97;;;29.42;51.50
53689;BME280;39583;54.682;30.662;2022-08-16T10:35:24;99586.97;;;29.34;51.61
53689;BME280;39583;54.682;30.662;2022-08-16T10:37:51;99589.00;;;29.25;51.59
53689;BME280;39583;54.682;30.662;2022-08-16T10:40:18;99591.53;;;29.18;51.92
53689;BME280;39583;54.682;30.662;2022-08-16T10:42:44;99585.03;;;29.14;51.47
53689;BME280;39583;54.682;30.662;2022-08-16T10:45:11;99594.19;;;28.94;51.88
53689;BME280;39583;54.682;30.662;2022-08-16T10:47:37;99582.78;;;28.87;52.06
53689;BME280;39583;54.682;30.662;2022-08-16T10:50:05;99583.09;;;28.94;52.69
53689;BME280;39583;54.682;30.662;2022-08-16T10:52:32;99587.63;;;28.98;52.15
53689;BME280;39583;54.682;30.662;2022-08-16T10:54:59;99594.31;;;28.97;52.55
53689;BME280;39583;54.682;30.662;2022-08-16T10:57:26;99600.22;;;28.96;52.52
53689;BME280;39583;54.682;30.662;2022-08-16T10:59:53;99586.59;;;29.03;52.38
53689;BME280;39583;54.682;30.662;2022-08-16T11:02:20;99582.75;;;28.95;52.58
53689;BME280;39583;54.682;30.662;2022-08-16T11:04:47;99585.25;;;28.88;52.62
53689;BME280;39583;54.682;30.662;2022-08-16T11:07:14;99586.34;;;28.96;52.21
53689;BME280;39583;54.682;30.662;2022-08-16T11:09:40;99583.69;;;28.99;52.54
53689;BME280;39583;54.682;30.662;2022-08-16T11:12:06;99585.78;;;29.02;52.59
53689;BME280;39583;54.682;30.662;2022-08-16T11:14:35;99586.28;;;29.04;52.56
53689;BME280;39583;54.682;30.662;2022-08-16T11:17:02;99583.97;;;29.06;52.29
53689;BME280;39583;54.682;30.662;2022-08-16T11:19:29;99579.94;;;29.16;52.92
53689;BME280;39583;54.682;30.662;2022-08-16T11:21:55;99577.56;;;29.27;52.34
53689;BME280;39583;54.682;30.662;2022-08-16T11:24:22;99577.91;;;29.25;51.71
53689;BME280;39583;54.682;30.662;2022-08-16T11:26:48;99583.81;;;29.24;51.59
53689;BME280;39583;54.682;30.662;2022-08-16T11:29:15;99586.91;;;29.22;51.61
53689;BME280;39583;54.682;30.662;2022-08-16T11:31:42;99579.94;;;29.16;51.80
53689;BME280;39583;54.682;30.662;2022-08-16T11:34:08;99579.47;;;29.14;51.85
53689;BME280;39583;54.682;30.662;2022-08-16T11:36:35;99581.91;;;29.16;51.70
53689;BME280;39583;54.682;30.662;2022-08-16T11:39:02;99589.13;;;29.29;51.90
53689;BME280;39583;54.682;30.662;2022-08-16T11:41:28;99591.94;;;29.41;51.69
53689;BME280;39583;54.682;30.662;2022-08-16T11:44:00;99586.00;;;29.51;50.46
53689;BME280;39583;54.682;30.662;2022-08-16T11:46:27;99590.31;;;29.61;50.41
53689;BME280;39583;54.682;30.662;2022-08-16T11:48:54;99576.41;;;29.49;49.97
53689;BME280;39583;54.682;30.662;2022-08-16T11:51:21;99598.44;;;29.45;49.49
53689;BME280;39583;54.682;30.662;2022-08-16T11:53:47;99595.53;;;29.42;49.77
53689;BME280;39583;54.682;30.662;2022-08-16T11:56:13;99589.28;;;29.32;49.68
53689;BME280;39583;54.682;30.662;2022-08-16T11:58:39;99584.56;;;29.12;50.14
53689;BME280;39583;54.682;30.662;2022-08-16T12:01:06;99592.00;;;28.99;50.79
53689;BME280;39583;54.682;30.662;2022-08-16T12:03:33;99585.84;;;29.15;50.41
53689;BME280;39583;54.682;30.662;2022-08-16T12:06:12;99592.91;;;29.45;50.32
53689;BME280;39583;54.682;30.662;2022-08-16T12:08:40;99596.44;;;29.66;50.27
53689;BME280;39583;54.682;30.662;2022-08-16T12:11:07;99599.00;;;29.72;50.43
53689;BME280;39583;54.682;30.662;2022-08-16T12:13:34;99593.56;;;29.75;50.44
53689;BME280;39583;54.682;30.662;2022-08-16T12:16:01;99595.63;;;29.66;50.44
53689;BME280;39583;54.682;30.662;2022-08-16T12:18:27;99593.53;;;29.63;50.84
53689;BME280;39583;54.682;30.662;2022-08-16T12:20:54;99585.53;;;29.49;51.08
53689;BME280;39583;54.682;30.662;2022-08-16T12:23:20;99595.88;;;29.40;50.88
53689;BME280;39583;54.682;30.662;2022-08-16T12:25:46;99598.00;;;29.22;50.54
53689;BME280;39583;54.682;30.662;2022-08-16T12:28:13;99597.63;;;29.12;50.67
53689;BME280;39583;54.682;30.662;2022-08-16T12:30:42;99594.31;;;29.18;50.60
53689;BME280;39583;54.682;30.662;2022-08-16T12:33:12;99590.28;;;29.28;51.00
53689;BME280;39583;54.682;30.662;2022-08-16T12:35:45;99591.34;;;29.35;50.50
53689;BME280;39583;54.682;30.662;2022-08-16T12:38:13;99590.56;;;29.35;50.57
53689;BME280;39583;54.682;30.662;2022-08-16T12:40:42;99590.66;;;29.38;50.37
53689;BME280;39583;54.682;30.662;2022-08-16T12:43:10;99600.56;;;29.27;49.77
53689;BME280;39583;54.682;30.662;2022-08-16T12:45:44;99598.91;;;29.14;50.35
53689;BME280;39583;54.682;30.662;2022-08-16T12:48:12;99597.50;;;29.08;50.67
53689;BME280;39583;54.682;30.662;2022-08-16T12:50:58;99593.03;;;28.95;50.36
53689;BME280;39583;54.682;30.662;2022-08-16T12:53:24;99595.03;;;28.86;50.82
53689;BME280;39583;54.682;30.662;2022-08-16T12:55:51;99588.28;;;28.74;50.81
53689;BME280;39583;54.682;30.662;2022-08-16T12:58:18;99587.72;;;28.60;51.41
53689;BME280;39583;54.682;30.662;2022-08-16T13:00:45;99583.59;;;28.45;51.81
53689;BME280;39583;54.682;30.662;2022-08-16T13:03:11;99592.97;;;28.24;52.15
53689;BME280;39583;54.682;30.662;2022-08-16T13:05:41;99586.09;;;28.00;52.76
53689;BME280;39583;54.682;30.662;2022-08-16T13:08:09;99600.47;;;27.85;53.62
53689;BME280;39583;54.682;30.662;2022-08-16T13:10:39;99612.09;;;27.61;54.09
53689;BME280;39583;54.682;30.662;2022-08-16T13:13:06;99606.59;;;27.44;55.14
53689;BME280;39583;54.682;30.662;2022-08-16T13:15:33;99601.41;;;27.25;55.47
53689;BME280;39583;54.682;30.662;2022-08-16T13:18:00;99603.22;;;27.12;55.31
53689;BME280;39583;54.682;30.662;2022-08-16T13:20:26;99609.69;;;26.99;55.88
53689;BME280;39583;54.682;30.662;2022-08-16T13:23:05;99604.34;;;26.85;56.32
53689;BME280;39583;54.682;30.662;2022-08-16T13:25:33;99605.78;;;26.74;56.96
53689;BME280;39583;54.682;30.662;2022-08-16T13:28:01;99610.81;;;26.72;57.60
53689;BME280;39583;54.682;30.662;2022-08-16T13:30:29;99604.63;;;26.66;57.73
53689;BME280;39583;54.682;30.662;2022-08-16T13:32:57;99601.38;;;26.64;57.99
53689;BME280;39583;54.682;30.662;2022-08-16T13:35:24;99602.06;;;26.70;57.75
53689;BME280;39583;54.682;30.662;2022-08-16T13:37:50;99603.84;;;26.74;57.49
53689;BME280;39583;54.682;30.662;2022-08-16T13:40:17;99595.69;;;26.78;57.73
53689;BME280;39583;54.682;30.662;2022-08-16T13:42:43;99590.03;;;26.74;57.67
53689;BME280;39583;54.682;30.662;2022-08-16T13:45:12;99595.03;;;26.81;57.64
53689;BME280;39583;54.682;30.662;2022-08-16T13:47:38;99596.19;;;26.89;57.77
53689;BME280;39583;54.682;30.662;2022-08-16T13:50:06;99579.28;;;26.90;57.82
53689;BME280;39583;54.682;30.662;2022-08-16T13:52:33;99600.78;;;27.11;57.32
53689;BME280;39583;54.682;30.662;2022-08-16T13:55:00;99602.56;;;27.24;57.54
53689;BME280;39583;54.682;30.662;2022-08-16T13:57:26;99595.38;;;27.31;57.19
53689;BME280;39583;54.682;30.662;2022-08-16T13:59:52;99601.38;;;27.51;57.36
53689;BME280;39583;54.682;30.662;2022-08-16T14:02:18;99602.63;;;27.71;57.10
53689;BME280;39583;54.682;30.662;2022-08-16T14:04:46;99604.38;;;27.84;56.15
53689;BME280;39583;54.682;30.662;2022-08-16T14:07:14;99606.00;;;27.85;56.73
53689;BME280;39583;54.682;30.662;2022-08-16T14:09:41;99601.47;;;27.89;56.94
53689;BME280;39583;54.682;30.662;2022-08-16T14:12:29;99609.59;;;27.85;56.92
53689;BME280;39583;54.682;30.662;2022-08-16T14:14:56;99611.75;;;27.62;56.76
53689;BME280;39583;54.682;30.662;2022-08-16T14:17:25;99613.41;;;27.46;56.84
53689;BME280;39583;54.682;30.662;2022-08-16T14:19:52;99611.47;;;27.29;57.18
53689;BME280;39583;54.682;30.662;2022-08-16T14:22:24;99605.00;;;27.17;57.54
53689;BME280;39583;54.682;30.662;2022-08-16T14:24:52;99604.84;;;27.04;57.43
53689;BME280;39583;54.682;30.662;2022-08-16T14:27:21;99609.69;;;26.99;57.62
53689;BME280;39583;54.682;30.662;2022-08-16T14:29:50;99610.84;;;26.98;57.46
53689;BME280;39583;54.682;30.662;2022-08-16T14:32:35;99607.25;;;26.97;57.67
53689;BME280;39583;54.682;30.662;2022-08-16T14:35:26;99604.97;;;26.91;57.58
53689;BME280;39583;54.682;30.662;2022-08-16T14:38:11;99606.28;;;26.85;57.75
53689;BME280;39583;54.682;30.662;2022-08-16T14:40:56;99610.00;;;26.80;57.38
53689;BME280;39583;54.682;30.662;2022-08-16T14:43:41;99604.81;;;26.70;57.63
53689;BME280;39583;54.682;30.662;2022-08-16T14:46:26;99602.84;;;26.62;58.04
53689;BME280;39583;54.682;30.662;2022-08-16T14:49:11;99607.84;;;26.51;58.22
53689;BME280;39583;54.682;30.662;2022-08-16T14:52:05;99608.34;;;26.44;58.57
53689;BME280;39583;54.682;30.662;2022-08-16T14:54:50;99604.91;;;26.39;58.56
53689;BME280;39583;54.682;30.662;2022-08-16T14:57:37;99606.72;;;26.43;58.95
53689;BME280;39583;54.682;30.662;2022-08-16T15:00:24;99610.94;;;26.50;58.98
53689;BME280;39583;54.682;30.662;2022-08-16T15:02:52;99612.72;;;26.54;58.90
53689;BME280;39583;54.682;30.662;2022-08-16T15:05:20;99613.06;;;26.53;58.87
53689;BME280;39583;54.682;30.662;2022-08-16T15:07:47;99621.66;;;26.51;59.33
53689;BME280;39583;54.682;30.662;2022-08-16T15:10:14;99613.88;;;26.44;59.11
53689;BME280;39583;54.682;30.662;2022-08-16T15:12:42;99615.13;;;26.38;59.26
53689;BME280;39583;54.682;30.662;2022-08-16T15:15:12;99617.81;;;26.30;59.34
53689;BME280;39583;54.682;30.662;2022-08-16T15:17:41;99612.31;;;26.21;59.32
53689;BME280;39583;54.682;30.662;2022-08-16T15:20:10;99607.56;;;26.13;59.49
53689;BME280;39583;54.682;30.662;2022-08-16T15:22:39;99620.69;;;26.07;59.47
53689;BME280;39583;54.682;30.662;2022-08-16T15:25:19;99614.00;;;26.00;60.05
53689;BME280;39583;54.682;30.662;2022-08-16T15:27:47;99614.28;;;25.90;59.78
53689;BME280;39583;54.682;30.662;2022-08-16T15:30:17;99618.31;;;25.83;60.10
53689;BME280;39583;54.682;30.662;2022-08-16T15:32:44;99616.47;;;25.70;60.00
53689;BME280;39583;54.682;30.662;2022-08-16T15:35:11;99618.78;;;25.54;60.29
53689;BME280;39583;54.682;30.662;2022-08-16T15:37:38;99620.84;;;25.49;60.04
53689;BME280;39583;54.682;30.662;2022-08-16T15:40:09;99610.06;;;25.39;60.59
53689;BME280;39583;54.682;30.662;2022-08-16T15:42:37;99618.47;;;25.34;60.69
53689;BME280;39583;54.682;30.662;2022-08-16T15:45:05;99615.66;;;25.25;60.86
53689;BME280;39583;54.682;30.662;2022-08-16T15:47:32;99617.41;;;25.21;60.60
53689;BME280;39583;54.682;30.662;2022-08-16T15:50:01;99615.91;;;25.15;60.89
53689;BME280;39583;54.682;30.662;2022-08-16T15:52:32;99616.34;;;25.08;60.91
53689;BME280;39583;54.682;30.662;2022-08-16T15:55:05;99615.03;;;25.06;60.99
53689;BME280;39583;54.682;30.662;2022-08-16T15:57:33;99614.84;;;25.02;61.01
53689;BME280;39583;54.682;30.662;2022-08-16T16:00:01;99622.34;;;24.96;61.33
53689;BME280;39583;54.682;30.662;2022-08-16T16:02:40;99618.94;;;24.91;61.24
53689;BME280;39583;54.682;30.662;2022-08-16T16:05:07;99625.06;;;24.88;61.04
53689;BME280;39583;54.682;30.662;2022-08-16T16:07:34;99617.41;;;24.85;61.79
53689;BME280;39583;54.682;30.662;2022-08-16T16:10:04;99615.78;;;24.84;61.17
53689;BME280;39583;54.682;30.662;2022-08-16T16:12:31;99616.59;;;24.84;61.42
53689;BME280;39583;54.682;30.662;2022-08-16T16:14:58;99618.84;;;24.82;61.58
53689;BME280;39583;54.682;30.662;2022-08-16T16:17:24;99623.34;;;24.78;61.33
53689;BME280;39583;54.682;30.662;2022-08-16T16:19:51;99626.19;;;24.73;61.92
53689;BME280;39583;54.682;30.662;2022-08-16T16:22:17;99618.38;;;24.66;62.03
53689;BME280;39583;54.682;30.662;2022-08-16T16:24:43;99622.06;;;24.62;62.21
53689;BME280;39583;54.682;30.662;2022-08-16T16:27:12;99624.91;;;24.57;62.29
53689;BME280;39583;54.682;30.662;2022-08-16T16:29:39;99623.09;;;24.52;62.87
53689;BME280;39583;54.682;30.662;2022-08-16T16:32:08;99618.81;;;24.46;62.97
53689;BME280;39583;54.682;30.662;2022-08-16T16:34:35;99625.84;;;24.38;63.52
53689;BME280;39583;54.682;30.662;2022-08-16T16:37:02;99626.25;;;24.32;63.30
53689;BME280;39583;54.682;30.662;2022-08-16T16:39:28;99627.47;;;24.26;63.79
53689;BME280;39583;54.682;30.662;2022-08-16T16:41:55;99628.38;;;24.21;63.54
53689;BME280;39583;54.682;30.662;2022-08-16T16:44:25;99628.16;;;24.18;63.79
53689;BME280;39583;54.682;30.662;2022-08-16T16:46:52;99637.66;;;24.11;63.76
53689;BME280;39583;54.682;30.662;2022-08-16T16:49:19;99636.03;;;24.10;63.95
53689;BME280;39583;54.682;30.662;2022-08-16T16:51:46;99635.81;;;24.07;63.70
53689;BME280;39583;54.682;30.662;2022-08-16T16:54:17;99644.16;;;24.02;64.12
53689;BME280;39583;54.682;30.662;2022-08-16T16:56:45;99644.84;;;23.94;64.60
53689;BME280;39583;54.682;30.662;2022-08-16T16:59:20;99641.19;;;23.85;64.56
53689;BME280;39583;54.682;30.662;2022-08-16T17:01:52;99625.19;;;23.73;64.56
53689;BME280;39583;54.682;30.662;2022-08-16T17:04:22;99646.47;;;23.81;64.63
53689;BME280;39583;54.682;30.662;2022-08-16T17:06:51;99640.16;;;23.80;64.48
53689;BME280;39583;54.682;30.662;2022-08-16T17:09:17;99644.53;;;23.81;64.50
53689;BME280;39583;54.682;30.662;2022-08-16T17:11:44;99643.72;;;23.81;64.15
53689;BME280;39583;54.682;30.662;2022-08-16T17:14:13;99638.22;;;23.81;64.09
53689;BME280;39583;54.682;30.662;2022-08-16T17:16:42;99636.59;;;23.80;64.40
53689;BME280;39583;54.682;30.662;2022-08-16T17:19:09;99635.78;;;23.79;64.45
53689;BME280;39583;54.682;30.662;2022-08-16T17:21:37;99631.69;;;23.77;64.39
53689;BME280;39583;54.682;30.662;2022-08-16T17:24:08;99633.13;;;23.74;64.35
53689;BME280;39583;54.682;30.662;2022-08-16T17:26:35;99631.00;;;23.71;64.67
53689;BME280;39583;54.682;30.662;2022-08-16T17:29:02;99629.13;;;23.67;64.61
53689;BME280;39583;54.682;30.662;2022-08-16T17:31:29;99629.75;;;23.64;64.98
53689;BME280;39583;54.682;30.662;2022-08-16T17:33:56;99637.47;;;23.62;64.92
53689;BME280;39583;54.682;30.662;2022-08-16T17:36:24;99636.16;;;23.59;64.90
53689;BME280;39583;54.682;30.662;2022-08-16T17:38:54;99633.94;;;23.56;65.23
53689;BME280;39583;54.682;30.662;2022-08-16T17:41:20;99633.44;;;23.54;65.42
53689;BME280;39583;54.682;30.662;2022-08-16T17:43:50;99627.75;;;23.50;65.25
53689;BME280;39583;54.682;30.662;2022-08-16T17:46:17;99623.66;;;23.48;65.69
53689;BME280;39583;54.682;30.662;2022-08-16T17:48:45;99635.53;;;23.43;65.49
53689;BME280;39583;54.682;30.662;2022-08-16T17:51:16;99637.28;;;23.39;65.93
53689;BME280;39583;54.682;30.662;2022-08-16T17:53:42;99628.31;;;23.34;65.98
53689;BME280;39583;54.682;30.662;2022-08-16T17:56:09;99633.00;;;23.33;65.73
53689;BME280;39583;54.682;30.662;2022-08-16T17:58:35;99637.66;;;23.33;65.93
53689;BME280;39583;54.682;30.662;2022-08-16T18:01:10;99637.13;;;23.31;65.61
53689;BME280;39583;54.682;30.662;2022-08-16T18:03:38;99638.53;;;23.28;65.75
53689;BME280;39583;54.682;30.662;2022-08-16T18:06:11;99628.69;;;23.27;66.06
53689;BME280;39583;54.682;30.662;2022-08-16T18:08:39;99643.53;;;23.26;65.92
53689;BME280;39583;54.682;30.662;2022-08-16T18:11:06;99641.38;;;23.23;66.02
53689;BME280;39583;54.682;30.662;2022-08-16T18:13:48;99641.91;;;23.25;65.98
53689;BME280;39583;54.682;30.662;2022-08-16T18:16:16;99644.66;;;23.25;66.18
53689;BME280;39583;54.682;30.662;2022-08-16T18:18:42;99638.03;;;23.26;65.77
53689;BME280;39583;54.682;30.662;2022-08-16T18:21:09;99633.66;;;23.25;65.92
53689;BME280;39583;54.682;30.662;2022-08-16T18:23:57;99636.19;;;23.21;65.89
53689;BME280;39583;54.682;30.662;2022-08-16T18:26:23;99637.00;;;23.22;65.82
53689;BME280;39583;54.682;30.662;2022-08-16T18:28:50;99631.00;;;23.20;65.89
53689;BME280;39583;54.682;30.662;2022-08-16T18:31:20;99634.88;;;23.19;65.87
53689;BME280;39583;54.682;30.662;2022-08-16T18:33:46;99632.63;;;23.21;65.90
53689;BME280;39583;54.682;30.662;2022-08-16T18:36:14;99636.50;;;23.20;65.68
53689;BME280;39583;54.682;30.662;2022-08-16T18:38:41;99635.91;;;23.23;65.32
53689;BME280;39583;54.682;30.662;2022-08-16T18:41:07;99634.25;;;23.22;65.22
53689;BME280;39583;54.682;30.662;2022-08-16T18:43:34;99628.47;;;23.23;65.42
53689;BME280;39583;54.682;30.662;2022-08-16T18:46:00;99633.97;;;23.23;64.95
53689;BME280;39583;54.682;30.662;2022-08-16T18:48:27;99629.28;;;23.24;64.97
